createdAt,value
2018-06-15T00:18:07.491Z,93.90
2018-06-15T00:26:57.671Z,93.70
2018-06-15T00:38:59.740Z,93.80
2018-06-15T00:39:39.501Z,93.80
2018-06-15T00:46:15.273Z,93.70
2018-06-15T01:08:33.440Z,93.40
2018-06-15T01:09:07.439Z,93.50
2018-06-15T04:19:20.797Z,96.10
2018-06-15T04:19:54.860Z,96.10
2018-06-15T04:22:48.448Z,96.10
2018-06-15T04:45:12.827Z,95.90
2018-06-15T04:49:15.369Z,95.80
2018-06-15T04:57:37.216Z,95.40
2018-06-15T05:08:30.948Z,95.20
2018-06-15T05:09:20.936Z,95.10
2018-06-15T15:11:23.970Z,69.40
2018-06-15T15:21:17.432Z,71.80
2018-06-15T15:22:13.953Z,69.70
2018-06-15T15:30:20.799Z,67.50
2018-06-15T15:32:53.362Z,69.70
2018-06-15T15:33:30.193Z,70.40
2018-06-15T15:34:11.334Z,70.50
2018-06-15T15:34:46.393Z,70.10
2018-06-15T15:35:20.412Z,71.10
2018-06-15T15:35:54.527Z,70.80
2018-06-15T15:36:30.843Z,70.70
2018-06-15T19:24:02.800Z,91.00
2018-06-15T19:24:35.879Z,91.10
2018-06-15T19:25:08.941Z,91.10
2018-06-15T19:25:42.036Z,91.20
2018-06-15T19:26:15.079Z,91.30
2018-06-15T19:26:48.238Z,91.20
2018-06-15T19:27:21.253Z,91.30
2018-06-15T19:27:54.303Z,91.40
2018-06-15T19:28:27.350Z,91.40
2018-06-15T19:29:01.262Z,91.50
2018-06-15T19:29:34.214Z,91.40
2018-06-15T19:30:08.040Z,91.50
2018-06-15T19:30:41.188Z,91.50
2018-06-15T19:31:14.229Z,91.50
2018-06-15T19:31:47.287Z,91.60
2018-06-15T19:32:20.339Z,91.60
2018-06-15T19:32:53.384Z,91.60
2018-06-15T19:33:27.189Z,91.60
2018-06-15T19:34:01.002Z,91.70
2018-06-15T19:34:34.075Z,91.60
2018-06-15T19:35:07.126Z,91.60
2018-06-15T19:35:40.931Z,91.70
2018-06-15T19:36:13.968Z,91.70
2018-06-15T19:36:47.017Z,91.70
2018-06-15T19:37:20.061Z,91.70
2018-06-15T19:37:53.108Z,91.70
2018-06-15T19:38:26.152Z,91.70
2018-06-15T19:38:59.169Z,91.70
2018-06-15T19:39:32.217Z,91.70
2018-06-15T19:40:05.468Z,91.70
2018-06-15T19:40:38.651Z,91.70
2018-06-15T19:41:11.693Z,91.70
2018-06-15T19:41:44.742Z,91.70
2018-06-15T19:42:18.529Z,91.70
2018-06-15T19:42:51.584Z,91.70
2018-06-15T19:43:24.625Z,91.70
2018-06-15T19:43:58.174Z,91.80
2018-06-15T19:44:31.211Z,91.80
2018-06-15T19:45:04.287Z,91.80
2018-06-15T19:45:37.307Z,91.80
2018-06-15T19:46:10.335Z,91.80
2018-06-15T19:46:43.404Z,91.90
2018-06-15T19:47:16.459Z,91.90
2018-06-15T19:47:49.520Z,91.70
2018-06-15T19:48:22.555Z,91.80
2018-06-15T19:48:55.764Z,91.80
2018-06-15T19:49:28.864Z,92.00
2018-06-15T19:50:01.893Z,92.10
2018-06-15T19:50:34.940Z,92.00
2018-06-15T19:51:07.956Z,92.00
2018-06-15T19:51:40.987Z,92.40
2018-06-15T19:52:14.025Z,92.00
2018-06-15T19:52:47.080Z,92.00
2018-06-15T19:53:20.889Z,91.90
2018-06-15T19:53:53.917Z,91.90
2018-06-15T19:54:26.944Z,91.90
2018-06-15T19:54:59.975Z,92.00
2018-06-15T19:55:33.007Z,91.80
2018-06-15T19:56:06.065Z,91.80
2018-06-15T19:56:39.096Z,91.90
2018-06-15T19:57:12.123Z,92.00
2018-06-15T19:57:45.188Z,92.20
2018-06-15T19:58:18.231Z,92.00
2018-06-15T19:58:52.078Z,91.90
2018-06-15T19:59:25.832Z,92.00
2018-06-15T19:59:58.860Z,92.00
2018-06-15T20:00:32.756Z,91.80
2018-06-15T20:01:05.787Z,91.90
2018-06-15T20:01:38.818Z,92.00
2018-06-15T20:02:11.839Z,91.90
2018-06-15T20:02:44.937Z,92.00
2018-06-15T20:03:17.972Z,92.00
2018-06-15T20:03:51.012Z,92.00
2018-06-15T20:04:24.062Z,92.00
2018-06-15T20:04:57.077Z,92.10
2018-06-15T20:05:30.114Z,92.10
2018-06-15T20:06:03.912Z,92.10
2018-06-15T20:06:36.949Z,92.40
2018-06-15T20:07:10.001Z,92.20
2018-06-15T20:07:43.045Z,92.10
2018-06-15T20:08:16.123Z,92.00
2018-06-15T20:08:49.217Z,92.10
2018-06-15T20:09:22.255Z,92.00
2018-06-15T20:09:55.295Z,92.20
2018-06-15T20:10:28.327Z,92.20
2018-06-15T20:11:01.357Z,92.20
2018-06-15T20:11:34.400Z,92.20
2018-06-15T20:12:07.431Z,92.20
2018-06-15T20:12:40.475Z,92.20
2018-06-15T20:13:13.520Z,92.70
2018-06-15T20:13:46.559Z,92.30
2018-06-15T20:14:19.599Z,92.50
2018-06-15T20:14:52.629Z,92.40
2018-06-15T20:15:25.661Z,92.30
2018-06-15T20:15:58.701Z,92.20
2018-06-15T20:16:32.497Z,92.40
2018-06-15T20:17:05.578Z,92.40
2018-06-15T20:17:38.611Z,92.50
2018-06-15T20:18:11.698Z,92.40
2018-06-15T20:18:44.751Z,92.50
2018-06-15T20:19:17.747Z,92.50
2018-06-15T20:19:50.768Z,92.50
2018-06-15T20:20:23.811Z,92.50
2018-06-15T20:20:56.848Z,92.40
2018-06-15T20:21:29.905Z,92.50
2018-06-15T20:22:02.936Z,92.50
2018-06-15T20:22:35.972Z,92.60
2018-06-15T20:23:09.017Z,92.60
2018-06-15T20:23:42.064Z,92.50
2018-06-15T20:24:15.863Z,92.40
2018-06-15T20:24:49.672Z,92.50
2018-06-15T20:25:22.716Z,92.50
2018-06-15T20:25:56.520Z,92.50
2018-06-15T20:26:30.315Z,92.50
2018-06-15T20:27:03.348Z,92.50
2018-06-15T20:27:36.513Z,92.60
2018-06-15T20:28:09.540Z,92.60
2018-06-15T20:28:43.351Z,92.70
2018-06-15T20:29:16.401Z,92.70
2018-06-15T20:29:50.205Z,92.60
2018-06-15T20:30:23.243Z,92.60
2018-06-15T20:30:56.288Z,92.50
2018-06-15T20:31:29.329Z,92.60
2018-06-15T20:32:02.364Z,92.60
2018-06-15T20:32:35.408Z,92.80
2018-06-15T20:33:08.464Z,92.70
2018-06-15T20:33:41.484Z,92.80
2018-06-15T20:34:14.539Z,92.70
2018-06-15T20:34:47.616Z,92.60
2018-06-15T20:35:20.640Z,92.60
2018-06-15T20:35:53.696Z,92.70
2018-06-15T20:36:26.732Z,92.80
2018-06-15T20:36:59.783Z,92.70
2018-06-15T20:37:32.820Z,92.80
2018-06-15T20:38:05.873Z,92.70
2018-06-15T20:38:38.916Z,92.80
2018-06-15T20:39:11.956Z,92.80
2018-06-15T20:39:45.000Z,92.70
2018-06-15T20:40:18.045Z,92.80
2018-06-15T20:40:51.078Z,92.80
2018-06-15T20:41:24.878Z,92.70
2018-06-15T20:41:59.561Z,92.70
2018-06-15T20:42:32.618Z,92.70
2018-06-15T20:43:05.706Z,92.70
2018-06-15T20:43:38.857Z,92.80
2018-06-15T20:44:11.906Z,92.70
2018-06-15T20:44:45.716Z,92.80
2018-06-15T20:45:18.756Z,92.80
2018-06-15T20:45:52.544Z,92.80
2018-06-15T20:46:26.369Z,92.70
2018-06-15T20:46:59.424Z,92.70
2018-06-15T20:47:32.453Z,92.60
2018-06-15T20:48:05.547Z,92.70
2018-06-15T20:48:38.595Z,92.30
2018-06-15T20:49:11.667Z,92.70
2018-06-15T20:49:44.683Z,92.70
2018-06-15T20:50:17.740Z,93.10
2018-06-15T20:50:50.789Z,92.70
2018-06-15T20:51:23.815Z,92.70
2018-06-15T20:51:56.834Z,92.80
2018-06-15T20:52:30.900Z,92.90
2018-06-15T20:53:03.998Z,92.90
2018-06-15T20:53:37.016Z,92.90
2018-06-15T20:54:10.060Z,92.70
2018-06-15T20:54:43.100Z,92.70
2018-06-15T20:55:16.904Z,92.90
2018-06-15T20:55:49.941Z,92.90
2018-06-15T20:56:22.990Z,92.80
2018-06-15T20:56:56.052Z,93.00
2018-06-15T20:57:29.089Z,92.90
2018-06-15T20:58:02.906Z,93.40
2018-06-15T20:58:36.017Z,93.00
2018-06-15T20:59:10.024Z,92.90
2018-06-15T20:59:43.065Z,92.90
2018-06-15T21:00:16.100Z,92.90
2018-06-15T21:00:49.169Z,92.90
2018-06-15T21:01:23.012Z,93.00
2018-06-15T21:01:56.057Z,93.00
2018-06-15T21:02:29.296Z,93.00
2018-06-15T21:03:02.334Z,93.40
2018-06-15T21:03:35.376Z,93.10
2018-06-15T21:04:08.415Z,93.10
2018-06-15T21:04:41.776Z,93.10
2018-06-15T21:05:14.789Z,93.20
2018-06-15T21:05:47.814Z,93.20
2018-06-15T21:06:21.591Z,93.10
2018-06-15T21:06:54.664Z,93.10
2018-06-15T21:07:27.706Z,93.20
2018-06-15T21:08:00.768Z,93.10
2018-06-15T21:08:33.828Z,93.30
2018-06-15T21:09:06.907Z,93.10
2018-06-15T21:09:39.948Z,93.20
2018-06-15T21:10:12.988Z,93.20
2018-06-15T21:10:46.016Z,93.30
2018-06-15T21:11:19.071Z,93.30
2018-06-15T21:11:52.095Z,93.30
2018-06-15T21:12:25.144Z,93.30
2018-06-15T21:12:58.163Z,93.30
2018-06-15T21:13:31.215Z,93.40
2018-06-15T21:14:04.268Z,93.40
2018-06-15T21:14:37.314Z,93.60
2018-06-15T21:15:10.336Z,93.60
2018-06-15T21:15:43.389Z,93.50
2018-06-15T21:16:16.428Z,93.50
2018-06-15T21:16:49.513Z,93.40
2018-06-15T21:17:22.548Z,93.40
2018-06-15T21:17:55.683Z,93.50
2018-06-15T21:18:28.739Z,93.60
2018-06-15T21:19:01.780Z,93.50
2018-06-15T21:19:35.580Z,93.50
2018-06-15T21:20:09.388Z,93.60
2018-06-15T21:20:42.414Z,93.60
2018-06-15T21:21:15.472Z,93.50
2018-06-15T21:21:48.545Z,93.50
2018-06-15T21:22:21.568Z,93.60
2018-06-15T21:22:54.591Z,93.70
2018-06-15T21:23:27.653Z,93.70
2018-06-15T21:24:00.693Z,93.80
2018-06-15T21:24:33.730Z,93.70
2018-06-15T21:25:06.759Z,93.80
2018-06-15T21:25:39.800Z,93.70
2018-06-15T21:26:12.840Z,93.90
2018-06-15T21:26:45.871Z,93.90
2018-06-15T21:27:19.711Z,93.90
2018-06-15T21:27:52.880Z,93.90
2018-06-15T21:28:25.923Z,93.90
2018-06-15T21:28:58.973Z,93.90
2018-06-15T21:29:32.011Z,93.90
2018-06-15T21:30:05.052Z,93.90
2018-06-15T21:30:38.097Z,93.90
2018-06-15T21:31:11.131Z,93.90
2018-06-15T21:31:44.164Z,94.00
2018-06-15T21:32:17.204Z,93.90
2018-06-15T21:32:50.240Z,94.00
2018-06-15T21:33:23.292Z,94.00
2018-06-15T21:33:57.132Z,94.10
2018-06-15T21:34:30.166Z,94.10
2018-06-15T21:35:04.187Z,94.50
2018-06-15T21:35:37.220Z,94.10
2018-06-15T21:36:10.256Z,94.20
2018-06-15T21:36:43.277Z,94.10
2018-06-15T21:37:17.068Z,94.00
2018-06-15T21:37:50.868Z,94.10
2018-06-15T21:38:23.927Z,94.10
2018-06-15T21:38:57.004Z,94.20
2018-06-15T21:39:30.037Z,94.10
2018-06-15T21:40:03.085Z,94.20
2018-06-15T21:40:36.119Z,94.10
2018-06-15T21:41:09.177Z,94.20
2018-06-15T21:41:42.212Z,94.10
2018-06-15T21:42:15.242Z,94.10
2018-06-15T21:42:48.276Z,94.20
2018-06-15T21:43:21.308Z,94.10
2018-06-15T21:43:54.346Z,94.20
2018-06-15T21:44:27.409Z,94.20
2018-06-15T21:45:00.448Z,94.20
2018-06-15T21:45:33.495Z,94.30
2018-06-15T21:46:06.536Z,94.20
2018-06-15T21:46:39.583Z,94.40
2018-06-15T21:47:12.600Z,94.30
2018-06-15T21:47:45.644Z,94.30
2018-06-15T21:48:19.458Z,94.30
2018-06-15T21:48:52.497Z,94.30
2018-06-15T21:49:25.542Z,94.30
2018-06-15T21:49:59.356Z,94.30
2018-06-15T21:50:32.405Z,94.30
2018-06-15T21:51:05.444Z,94.50
2018-06-15T21:51:38.455Z,94.40
2018-06-15T21:52:12.272Z,94.30
2018-06-15T21:52:45.311Z,94.30
2018-06-15T21:53:18.332Z,94.30
2018-06-15T21:53:51.385Z,94.40
2018-06-15T21:54:25.381Z,94.40
2018-06-15T21:54:59.183Z,94.40
2018-06-15T21:55:32.233Z,94.40
2018-06-15T21:56:06.032Z,94.60
2018-06-15T21:56:39.051Z,94.50
2018-06-15T21:57:12.083Z,94.60
2018-06-15T21:57:45.908Z,94.50
2018-06-15T21:58:18.937Z,94.40
2018-06-15T21:58:51.992Z,94.50
2018-06-15T21:59:25.036Z,94.50
2018-06-15T21:59:58.056Z,94.70
2018-06-15T22:00:31.096Z,94.70
2018-06-15T22:01:04.180Z,94.60
2018-06-15T22:01:37.210Z,94.60
2018-06-15T22:02:11.027Z,94.80
2018-06-15T22:02:44.053Z,94.70
2018-06-15T22:03:17.083Z,94.70
2018-06-15T22:03:50.115Z,94.60
2018-06-15T22:04:23.177Z,94.60
2018-06-15T22:04:56.277Z,94.60
2018-06-15T22:05:29.271Z,94.60
2018-06-15T22:06:02.311Z,94.60
2018-06-15T22:06:35.339Z,94.70
2018-06-15T22:07:08.371Z,94.70
2018-06-15T22:07:42.182Z,94.70
2018-06-15T22:08:15.204Z,94.70
2018-06-15T22:08:48.272Z,94.70
2018-06-15T22:09:21.315Z,94.80
2018-06-15T22:09:54.373Z,94.60
2018-06-15T22:10:27.427Z,94.60
2018-06-15T22:11:01.241Z,94.80
2018-06-15T22:11:34.249Z,94.80
2018-06-15T22:12:07.288Z,94.70
2018-06-15T22:12:40.483Z,94.70
2018-06-15T22:13:13.671Z,94.80
2018-06-15T22:13:46.723Z,94.80
2018-06-15T22:14:19.759Z,94.80
2018-06-15T22:14:52.796Z,94.80
2018-06-15T22:15:25.851Z,94.90
2018-06-15T22:15:59.628Z,94.90
2018-06-15T22:16:32.664Z,94.90
2018-06-15T22:17:05.713Z,94.80
2018-06-15T22:17:38.777Z,94.80
2018-06-15T22:18:11.764Z,94.90
2018-06-15T22:18:44.798Z,94.90
2018-06-15T22:19:18.627Z,94.90
2018-06-15T22:19:51.677Z,94.90
2018-06-15T22:20:24.695Z,94.90
2018-06-15T22:20:57.717Z,95.00
2018-06-15T22:21:31.544Z,95.00
2018-06-15T22:22:04.728Z,95.00
2018-06-15T22:22:37.779Z,94.90
2018-06-15T22:23:11.603Z,95.00
2018-06-15T22:23:44.647Z,95.00
2018-06-15T22:24:17.699Z,95.00
2018-06-15T22:24:50.712Z,94.90
2018-06-15T22:25:23.753Z,94.90
2018-06-15T22:25:57.585Z,94.90
2018-06-15T22:26:31.351Z,94.90
2018-06-15T22:27:04.391Z,94.90
2018-06-15T22:27:37.656Z,94.80
2018-06-15T22:28:10.675Z,95.00
2018-06-15T22:28:43.924Z,95.30
2018-06-15T22:29:17.186Z,95.00
2018-06-15T22:29:50.231Z,95.00
2018-06-15T22:30:23.258Z,95.00
2018-06-15T22:30:56.284Z,95.00
2018-06-15T22:31:29.324Z,95.10
2018-06-15T22:32:02.374Z,95.20
2018-06-15T22:32:35.405Z,95.10
2018-06-15T22:33:08.481Z,95.20
2018-06-15T22:33:41.520Z,95.20
2018-06-15T22:34:14.567Z,95.20
2018-06-15T22:34:47.614Z,95.20
2018-06-15T22:35:21.419Z,95.20
2018-06-15T22:35:54.472Z,95.10
2018-06-15T22:36:27.517Z,95.10
2018-06-15T22:37:01.309Z,95.20
2018-06-15T22:37:35.136Z,95.20
2018-06-15T22:38:08.163Z,95.20
2018-06-15T22:38:41.183Z,95.20
2018-06-15T22:39:14.212Z,95.30
2018-06-15T22:39:48.032Z,95.20
2018-06-15T22:40:21.060Z,95.20
2018-06-15T22:40:54.111Z,95.20
2018-06-15T22:41:27.367Z,95.30
2018-06-15T22:42:00.411Z,95.20
2018-06-15T22:42:33.458Z,95.20
2018-06-15T22:43:07.264Z,95.30
2018-06-15T22:43:40.302Z,95.30
2018-06-15T22:44:13.336Z,95.40
2018-06-15T22:44:47.157Z,95.40
2018-06-15T22:45:20.210Z,95.40
2018-06-15T22:45:54.004Z,95.40
2018-06-15T22:46:27.812Z,95.40
2018-06-15T22:47:00.849Z,95.40
2018-06-15T22:47:33.871Z,95.30
2018-06-15T22:48:06.933Z,95.20
2018-06-15T22:48:39.956Z,95.20
2018-06-15T22:49:13.001Z,95.30
2018-06-15T22:49:46.045Z,95.30
2018-06-15T22:50:19.080Z,95.20
2018-06-15T22:50:52.104Z,95.30
2018-06-15T22:51:25.145Z,95.30
2018-06-15T22:51:58.951Z,95.50
2018-06-15T22:52:32.744Z,95.50
2018-06-15T22:53:06.567Z,95.50
2018-06-15T22:53:40.340Z,95.40
2018-06-15T22:54:14.123Z,95.40
2018-06-15T22:54:47.180Z,95.40
2018-06-15T22:55:20.217Z,95.40
2018-06-15T22:55:53.231Z,95.50
2018-06-15T22:56:27.028Z,95.60
2018-06-15T22:57:00.834Z,95.60
2018-06-15T22:57:33.855Z,95.60
2018-06-15T22:58:07.675Z,95.50
2018-06-15T22:58:40.731Z,95.50
2018-06-15T22:59:13.779Z,95.60
2018-06-15T22:59:46.843Z,95.70
2018-06-15T23:00:19.895Z,95.50
2018-06-15T23:00:53.695Z,95.50
2018-06-15T23:01:26.736Z,95.50
2018-06-15T23:01:59.797Z,95.60
2018-06-15T23:02:32.831Z,95.60
2018-06-15T23:03:06.145Z,95.50
2018-06-15T23:03:39.184Z,95.50
2018-06-15T23:04:12.226Z,95.60
2018-06-15T23:04:45.264Z,95.50
2018-06-15T23:05:18.324Z,95.60
2018-06-15T23:05:51.504Z,95.70
2018-06-15T23:06:24.568Z,95.60
2018-06-15T23:06:57.622Z,95.70
2018-06-15T23:07:31.411Z,95.60
2018-06-15T23:08:05.207Z,95.70
2018-06-15T23:08:39.007Z,95.60
2018-06-15T23:09:12.204Z,95.70
2018-06-15T23:09:45.276Z,95.70
2018-06-15T23:10:18.324Z,95.70
2018-06-15T23:10:51.354Z,95.70
2018-06-15T23:11:24.392Z,95.70
2018-06-15T23:11:57.812Z,95.70
2018-06-15T23:12:30.811Z,95.70
2018-06-15T23:13:04.608Z,96.00
2018-06-15T23:13:38.403Z,95.80
2018-06-15T23:14:12.211Z,95.70
2018-06-15T23:14:46.048Z,95.70
2018-06-15T23:15:19.832Z,95.70
2018-06-15T23:15:52.864Z,95.70
2018-06-15T23:16:25.887Z,95.70
2018-06-15T23:16:58.912Z,95.70
2018-06-15T23:17:32.724Z,95.60
2018-06-15T23:18:05.748Z,95.60
2018-06-15T23:18:38.779Z,95.60
2018-06-15T23:19:11.839Z,95.70
2018-06-15T23:19:44.883Z,95.80
2018-06-15T23:20:18.027Z,95.80
2018-06-15T23:20:51.048Z,95.80
2018-06-15T23:21:24.186Z,95.80
2018-06-15T23:21:57.219Z,95.80
2018-06-15T23:22:30.243Z,95.80
2018-06-15T23:23:03.284Z,95.80
2018-06-15T23:23:37.093Z,95.70
2018-06-15T23:24:10.124Z,95.80
2018-06-15T23:24:43.151Z,95.80
2018-06-15T23:25:16.225Z,95.80
2018-06-15T23:25:49.228Z,95.80
2018-06-15T23:26:22.257Z,95.80
2018-06-15T23:26:55.293Z,95.80
2018-06-15T23:27:29.102Z,95.70
2018-06-15T23:28:02.146Z,95.70
2018-06-15T23:28:35.188Z,95.70
2018-06-15T23:29:08.220Z,95.70
2018-06-15T23:29:41.262Z,95.60
2018-06-15T23:30:14.293Z,95.70
2018-06-15T23:30:47.335Z,95.70
2018-06-15T23:31:21.132Z,95.80
2018-06-15T23:31:54.932Z,95.70
2018-06-15T23:32:27.956Z,95.70
2018-06-15T23:33:00.982Z,95.70
2018-06-15T23:33:34.008Z,95.60
2018-06-15T23:34:07.056Z,95.70
2018-06-15T23:34:40.091Z,95.60
2018-06-15T23:35:13.128Z,95.80
2018-06-15T23:35:46.177Z,95.70
2018-06-15T23:36:19.212Z,95.70
2018-06-15T23:36:53.045Z,95.60
2018-06-15T23:37:26.067Z,95.60
2018-06-15T23:37:59.094Z,95.70
2018-06-15T23:38:32.259Z,95.70
2018-06-15T23:39:06.057Z,95.60
2018-06-15T23:39:39.076Z,95.60
2018-06-15T23:40:12.109Z,95.60
2018-06-15T23:40:45.161Z,95.70
2018-06-15T23:41:18.226Z,95.80
2018-06-15T23:41:51.354Z,95.70
2018-06-15T23:42:24.402Z,95.80
2018-06-15T23:42:57.424Z,95.70
2018-06-15T23:43:30.469Z,95.70
2018-06-15T23:44:03.840Z,95.70
2018-06-15T23:44:36.864Z,95.60
2018-06-15T23:45:09.996Z,95.60
2018-06-15T23:45:43.043Z,95.50
2018-06-15T23:46:16.062Z,95.50
2018-06-15T23:46:49.097Z,95.60
2018-06-15T23:47:22.884Z,95.50
2018-06-15T23:47:56.686Z,95.60
2018-06-15T23:48:29.707Z,95.60
2018-06-15T23:49:02.847Z,95.50
2018-06-15T23:49:35.895Z,95.50
2018-06-15T23:50:09.697Z,95.40
2018-06-15T23:50:42.834Z,95.40
2018-06-15T23:51:15.874Z,95.40
2018-06-15T23:51:48.916Z,95.40
2018-06-15T23:52:22.009Z,95.30
2018-06-15T23:52:55.060Z,95.40
2018-06-15T23:53:29.193Z,95.40
2018-06-15T23:54:02.288Z,95.40
2018-06-15T23:54:35.314Z,95.30
2018-06-15T23:55:08.335Z,95.20
2018-06-15T23:55:41.420Z,95.30
2018-06-15T23:56:14.467Z,95.30
2018-06-15T23:56:47.479Z,95.30
2018-06-15T23:57:20.508Z,95.30
2018-06-15T23:57:53.533Z,95.30
2018-06-15T23:58:26.684Z,95.30
2018-06-15T23:58:59.703Z,95.30
2018-06-15T23:59:32.743Z,95.40
